Time;durP1;ratioP1;P1;durP2;ratioP2;P2;SDS_P1;SDS_P2;PMS_P1;PMS_P2;Temp;Humidity;BMP_temperature;BMP_pressure;BME280_temperature;BME280_humidity;BME280_pressure;Samples;Min_cycle;Max_cycle;Signal;HPM_P1;HPM_P2
2022/09/20 00:01:10;;;;;;;13.05;12.35;;;;;;;11.11;100.00;100446.84;5052730;28;20032;-68
2022/09/20 00:03:36;;;;;;;;;;;;;;;11.29;100.00;100452.63;5052153;28;20024;-70
2022/09/20 00:06:04;;;;;;;13.27;12.57;;;;;;;11.31;100.00;100453.28;5043854;28;19916;-69
2022/09/20 00:08:29;;;;;;;13.27;12.57;;;;;;;11.37;100.00;100448.22;5051598;28;20021;-69
2022/09/20 00:11:02;;;;;;;12.75;12.15;;;;;;;11.34;100.00;100447.59;5047049;28;20055;-69
2022/09/20 00:13:29;;;;;;;13.13;12.43;;;;;;;11.25;100.00;100447.88;5052820;28;20032;-69
2022/09/20 00:15:55;;;;;;;12.90;12.20;;;;;;;11.11;100.00;100436.22;5052039;28;20396;-69
2022/09/20 00:18:21;;;;;;;13.10;12.40;;;;;;;11.26;100.00;100442.38;5051926;28;20029;-69
2022/09/20 00:20:48;;;;;;;14.05;13.25;;;;;;;11.25;100.00;100439.91;5046014;28;20036;-68
2022/09/20 00:23:14;;;;;;;13.93;13.13;;;;;;;11.23;100.00;100434.75;5051771;28;20419;-68
2022/09/20 00:25:40;;;;;;;13.40;12.70;;;;;;;11.18;100.00;100436.31;5050967;28;20052;-69
2022/09/20 00:28:07;;;;;;;13.35;12.65;;;;;;;11.30;100.00;100435.69;5052072;28;20045;-69
2022/09/20 00:30:33;;;;;;;13.43;12.73;;;;;;;11.18;100.00;100426.53;5051664;28;20086;-69
2022/09/20 00:32:59;;;;;;;12.90;12.25;;;;;;;11.10;100.00;100429.25;5051628;28;20167;-69
2022/09/20 00:35:24;;;;;;;13.10;12.40;;;;;;;11.11;100.00;100425.59;5051803;28;20107;-69
2022/09/20 00:37:50;;;;;;;12.90;12.20;;;;;;;11.27;100.00;100427.25;5045615;28;20450;-69
2022/09/20 00:40:19;;;;;;;13.05;12.35;;;;;;;11.16;100.00;100425.84;5043499;28;20404;-71
2022/09/20 00:42:45;;;;;;;13.30;12.60;;;;;;;11.06;100.00;100420.00;5050792;28;20036;-69
2022/09/20 00:45:20;;;;;;;13.02;12.32;;;;;;;11.08;100.00;100421.44;5051866;28;20028;-68
2022/09/20 00:47:52;;;;;;;;;;;;;;;11.09;100.00;100417.00;5051701;28;20049;-70
2022/09/20 00:50:41;;;;;;;13.10;12.40;;;;;;;11.04;100.00;100424.66;5050501;28;19917;-69
2022/09/20 00:53:12;;;;;;;12.90;12.20;;;;;;;11.08;100.00;100424.09;5046130;28;20041;-68
2022/09/20 00:55:48;;;;;;;13.73;12.93;;;;;;;10.99;100.00;100416.41;5045212;28;20028;-68
2022/09/20 00:58:15;;;;;;;13.10;12.40;;;;;;;11.06;100.00;100420.00;5051745;28;20029;-70
2022/09/20 01:00:43;;;;;;;13.77;12.98;;;;;;;10.99;100.00;100406.63;5050651;28;20133;-69
2022/09/20 01:03:12;;;;;;;12.98;12.27;;;;;;;11.10;100.00;100412.50;5050376;28;20465;-69
2022/09/20 01:05:39;;;;;;;13.27;12.57;;;;;;;11.04;100.00;100411.41;5051359;28;20028;-70
2022/09/20 01:08:05;;;;;;;12.90;12.20;;;;;;;11.00;100.00;100402.94;5051362;28;20500;-69
2022/09/20 01:10:31;;;;;;;12.60;12.00;;;;;;;11.08;100.00;100397.56;5050464;28;20039;-69
2022/09/20 01:12:57;;;;;;;12.50;11.90;;;;;;;11.04;100.00;100401.59;5051236;28;20025;-69
2022/09/20 01:15:26;;;;;;;13.32;12.63;;;;;;;10.95;100.00;100396.56;5051374;28;20032;-70
2022/09/20 01:17:54;;;;;;;13.75;12.95;;;;;;;11.05;100.00;100405.91;5048791;28;20116;-70
2022/09/20 01:20:25;;;;;;;12.73;12.13;;;;;;;10.97;100.00;100408.63;5047427;28;20439;-70
2022/09/20 01:23:11;;;;;;;13.48;12.77;;;;;;;10.94;100.00;100402.84;5044828;28;20039;-70
2022/09/20 01:26:14;;;;;;;13.20;12.50;;;;;;;10.83;100.00;100403.28;5050486;28;20054;-70
2022/09/20 01:28:46;;;;;;;12.93;12.25;;;;;;;10.87;100.00;100405.41;5051234;28;20060;-70
2022/09/20 01:31:33;;;;;;;13.00;12.30;;;;;;;10.90;100.00;100409.53;5042489;28;20133;-70
2022/09/20 01:34:01;;;;;;;13.00;12.30;;;;;;;10.99;100.00;100406.63;5048894;28;20064;-70
2022/09/20 01:36:36;;;;;;;12.90;12.20;;;;;;;10.99;100.00;100387.22;5051333;28;20071;-69
2022/09/20 01:39:14;;;;;;;13.15;12.45;;;;;;;10.96;100.00;100399.03;5051008;28;20104;-70
2022/09/20 01:41:56;;;;;;;12.95;12.25;;;;;;;11.00;100.00;100386.19;5050826;28;20027;-69
2022/09/20 01:44:50;;;;;;;13.38;12.68;;;;;;;10.93;100.00;100386.09;5051164;28;20361;-69
2022/09/20 01:47:21;;;;;;;12.57;11.98;;;;;;;10.91;100.00;100382.81;5036172;28;20045;-69
2022/09/20 01:50:02;;;;;;;12.95;12.25;;;;;;;10.86;100.00;100389.66;5051309;28;20100;-69
2022/09/20 01:52:39;;;;;;;13.05;12.35;;;;;;;10.99;100.00;100381.91;5039179;28;20021;-68
2022/09/20 01:55:32;;;;;;;13.05;12.35;;;;;;;11.01;100.00;100379.88;5049535;28;20500;-68
2022/09/20 01:58:06;;;;;;;12.60;12.00;;;;;;;10.86;100.00;100381.69;5043998;28;20461;-70
2022/09/20 02:00:53;;;;;;;12.88;12.18;;;;;;;10.89;100.00;100384.00;5060916;28;20024;-70
2022/09/20 02:03:56;;;;;;;13.88;13.07;;;;;;;10.97;100.00;100376.78;5042671;28;20025;-68
2022/09/20 02:06:48;;;;;;;13.30;12.60;;;;;;;10.91;100.00;100384.63;5008977;28;20026;-69
2022/09/20 02:09:40;;;;;;;13.40;12.70;;;;;;;10.91;100.00;100374.03;4994644;28;20501;-69
2022/09/20 02:12:14;;;;;;;13.25;12.55;;;;;;;10.86;100.00;100376.38;5043242;28;20032;-69
2022/09/20 02:14:42;;;;;;;13.20;12.50;;;;;;;10.93;100.00;100385.28;5045412;28;20592;-69
2022/09/20 02:17:30;;;;;;;13.25;12.55;;;;;;;10.82;100.00;100380.41;5047327;28;20037;-70
2022/09/20 02:20:09;;;;;;;13.07;12.38;;;;;;;10.87;100.00;100381.53;5050003;28;20029;-69
2022/09/20 02:23:19;;;;;;;12.95;12.25;;;;;;;10.84;100.00;100384.53;5054251;28;20025;-68
2022/09/20 02:26:19;;;;;;;13.00;12.30;;;;;;;10.86;100.00;100389.66;5052097;28;20041;-69
2022/09/20 02:29:16;;;;;;;13.10;12.40;;;;;;;10.81;100.00;100386.72;5054262;28;20021;-70
2022/09/20 02:32:05;;;;;;;13.00;12.30;;;;;;;10.63;100.00;100387.84;5052842;28;20028;-69
2022/09/20 02:35:08;;;;;;;13.07;12.38;;;;;;;10.71;100.00;100382.47;5054484;28;20025;-69
2022/09/20 02:38:10;;;;;;;12.95;12.25;;;;;;;10.60;100.00;100390.06;5044530;28;20037;-70
2022/09/20 02:40:55;;;;;;;13.05;12.35;;;;;;;10.59;100.00;100393.72;5054059;28;20518;-70
2022/09/20 02:43:20;;;;;;;;;;;;;;;10.50;100.00;100396.44;5052743;28;20033;-70
2022/09/20 02:46:10;;;;;;;13.23;12.52;;;;;;;10.46;100.00;100395.13;5053754;28;19916;-70
2022/09/20 02:48:53;;;;;;;13.20;12.50;;;;;;;10.41;100.00;100404.59;5043424;28;20053;-70
2022/09/20 02:51:40;;;;;;;13.48;12.77;;;;;;;10.52;100.00;100404.22;5053988;28;20039;-70
2022/09/20 02:54:14;;;;;;;13.63;12.93;;;;;;;10.47;100.00;100395.94;5051200;28;20033;-69
2022/09/20 02:57:13;;;;;;;13.35;12.65;;;;;;;10.46;100.00;100392.47;5054029;28;20116;-70
2022/09/20 02:59:49;;;;;;;13.40;12.70;;;;;;;10.38;100.00;100381.94;5052831;28;20037;-71
2022/09/20 03:02:25;;;;;;;13.07;12.38;;;;;;;10.35;100.00;100384.09;5052682;28;20128;-68
2022/09/20 03:05:27;;;;;;;14.13;13.32;;;;;;;10.37;100.00;100405.97;5051909;28;20025;-70
2022/09/20 03:08:12;;;;;;;13.55;12.85;;;;;;;10.30;100.00;100405.84;5043310;28;20067;-69
2022/09/20 03:10:43;;;;;;;13.38;12.68;;;;;;;10.32;100.00;100421.56;5052184;28;20024;-69
2022/09/20 03:13:36;;;;;;;13.52;12.82;;;;;;;10.18;100.00;100412.50;5043150;28;20414;-69
2022/09/20 03:16:15;;;;;;;13.48;12.77;;;;;;;10.27;100.00;100410.66;5052504;28;20028;-69
2022/09/20 03:18:58;;;;;;;14.18;13.35;;;;;;;10.35;100.00;100414.06;5052411;28;20036;-68
2022/09/20 03:21:54;;;;;;;13.18;12.48;;;;;;;10.28;100.00;100412.31;5042125;28;20431;-69
2022/09/20 03:24:36;;;;;;;13.10;12.40;;;;;;;10.29;100.00;100411.34;5040793;28;20028;-69
2022/09/20 03:27:07;;;;;;;13.70;12.95;;;;;;;10.21;100.00;100417.47;5052286;28;20017;-70
2022/09/20 03:30:14;;;;;;;13.00;12.30;;;;;;;10.17;100.00;100411.69;5048345;28;20138;-71
2022/09/20 03:33:05;;;;;;;14.18;13.38;;;;;;;10.14;100.00;100416.53;5048501;28;20025;-70
2022/09/20 03:35:47;;;;;;;13.25;12.55;;;;;;;10.28;100.00;100420.25;5053621;28;20029;-71
2022/09/20 03:38:42;;;;;;;13.48;12.77;;;;;;;10.23;100.00;100416.31;5047018;28;20102;-70
2022/09/20 03:41:33;;;;;;;12.80;12.10;;;;;;;10.26;100.00;100431.03;5052780;28;20048;-69
2022/09/20 03:44:17;;;;;;;13.73;12.93;;;;;;;10.14;100.00;100427.13;5051643;28;20104;-68
2022/09/20 03:46:47;;;;;;;13.93;13.13;;;;;;;10.24;100.00;100433.88;5042562;28;20038;-69
2022/09/20 03:49:40;;;;;;;12.93;12.25;;;;;;;10.22;100.00;100435.03;5042962;28;20112;-69
2022/09/20 03:52:33;;;;;;;13.00;12.30;;;;;;;10.29;100.00;100440.50;5047131;28;20029;-69
2022/09/20 03:55:12;;;;;;;13.85;13.05;;;;;;;10.28;100.00;100439.66;5052478;28;20025;-71
2022/09/20 03:57:56;;;;;;;13.10;12.40;;;;;;;10.30;100.00;100442.97;5054589;28;20423;-70
2022/09/20 04:00:32;;;;;;;13.40;12.70;;;;;;;10.30;100.00;100435.00;5053471;28;20384;-69
2022/09/20 04:03:32;;;;;;;13.73;12.93;;;;;;;10.29;100.00;100427.25;5049924;28;20113;-69
2022/09/20 04:06:21;;;;;;;12.68;12.05;;;;;;;10.11;100.00;100425.63;5042625;28;20041;-70
2022/09/20 04:08:55;;;;;;;13.80;13.00;;;;;;;10.11;100.00;100428.28;5050650;28;20117;-68
2022/09/20 04:11:25;;;;;;;14.00;13.20;;;;;;;10.02;100.00;100413.44;5051112;28;20099;-69
2022/09/20 04:14:33;;;;;;;13.20;12.50;;;;;;;10.13;100.00;100436.88;5047225;28;20336;-70
2022/09/20 04:17:17;;;;;;;14.05;13.25;;;;;;;10.15;100.00;100423.47;5029227;28;20152;-71
2022/09/20 04:20:02;;;;;;;13.40;12.70;;;;;;;9.97;100.00;100432.50;5036709;28;20068;-68
2022/09/20 04:22:28;;;;;;;13.68;12.88;;;;;;;9.98;100.00;100433.31;5041301;28;20404;-69
2022/09/20 04:25:06;;;;;;;13.50;12.80;;;;;;;9.94;100.00;100430.19;5051045;28;20485;-68
2022/09/20 04:27:38;;;;;;;13.48;12.75;;;;;;;10.04;100.00;100432.63;5040682;28;20020;-68
2022/09/20 04:30:28;;;;;;;14.05;13.25;;;;;;;10.11;100.00;100432.75;5040405;28;20370;-70
2022/09/20 04:33:00;;;;;;;14.75;13.85;;;;;;;10.53;100.00;100437.69;5048646;28;20112;-68
2022/09/20 04:38:29;;;;;;;12.85;12.15;;;;;;;10.34;100.00;100431.00;5033686;28;20116;-68
2022/09/20 04:41:24;;;;;;;15.45;14.45;;;;;;;10.58;100.00;100443.28;5044687;28;20033;-67
2022/09/20 04:44:17;;;;;;;14.07;13.27;;;;;;;10.67;100.00;100441.41;5029182;28;20460;-69
2022/09/20 04:47:04;;;;;;;13.73;12.93;;;;;;;10.86;100.00;100446.19;5051483;28;20098;-69
2022/09/20 04:50:09;;;;;;;13.73;12.93;;;;;;;10.89;100.00;100445.88;5051623;28;20025;-69
2022/09/20 04:53:05;;;;;;;13.35;12.65;;;;;;;10.85;100.00;100462.31;5050386;28;20074;-71
2022/09/20 04:56:09;;;;;;;13.50;12.73;;;;;;;10.71;100.00;100458.59;5051347;28;20817;-69
2022/09/20 04:58:42;;;;;;;13.17;12.47;;;;;;;10.58;100.00;100466.34;5038408;28;20033;-70
2022/09/20 05:01:25;;;;;;;13.57;12.77;;;;;;;10.54;100.00;100465.84;5046261;28;20122;-69
2022/09/20 05:04:05;;;;;;;13.20;12.50;;;;;;;10.71;100.00;100464.72;5044241;28;20029;-70
2022/09/20 05:06:37;;;;;;;13.20;12.50;;;;;;;10.88;100.00;100467.28;5044958;28;20176;-69
2022/09/20 05:09:24;;;;;;;13.02;12.32;;;;;;;10.75;100.00;100470.53;5050127;28;20615;-69
2022/09/20 05:12:35;;;;;;;13.07;12.38;;;;;;;10.74;100.00;100472.34;5037621;28;20037;-68
2022/09/20 05:15:35;;;;;;;13.18;12.48;;;;;;;10.79;100.00;100471.81;5044394;28;20730;-70
2022/09/20 05:18:19;;;;;;;14.38;13.52;;;;;;;10.66;100.00;100475.06;5050838;28;20057;-69
2022/09/20 05:21:06;;;;;;;14.48;13.57;;;;;;;10.86;100.00;100475.41;5036662;28;20041;-68
2022/09/20 05:24:00;;;;;;;13.50;12.70;;;;;;;11.01;100.00;100470.97;5051002;28;20362;-70
2022/09/20 05:26:44;;;;;;;13.48;12.77;;;;;;;11.27;100.00;100469.75;5048862;28;20519;-70
2022/09/20 05:29:20;;;;;;;13.95;13.15;;;;;;;11.31;100.00;100468.38;5050990;28;20499;-69
2022/09/20 05:31:57;;;;;;;13.70;12.90;;;;;;;12.48;100.00;100476.47;5049016;28;20408;-69
2022/09/20 05:34:52;;;;;;;13.70;12.90;;;;;;;13.05;100.00;100459.63;5043294;28;20036;-70
2022/09/20 05:37:56;;;;;;;13.07;12.38;;;;;;;13.76;100.00;100461.19;5044652;28;20055;-70
2022/09/20 05:40:29;;;;;;;12.98;12.27;;;;;;;13.26;100.00;100470.28;5047538;28;20447;-70
2022/09/20 05:43:10;;;;;;;13.25;12.55;;;;;;;12.82;100.00;100468.66;5051286;28;20025;-68
2022/09/20 05:45:57;;;;;;;13.20;12.50;;;;;;;12.58;100.00;100466.38;5047669;28;20112;-70
2022/09/20 05:48:49;;;;;;;13.80;13.00;;;;;;;12.53;100.00;100463.44;5051245;28;20037;-73
2022/09/20 05:51:34;;;;;;;12.70;12.10;;;;;;;12.38;100.00;100474.94;5049610;28;20512;-74
2022/09/20 05:54:15;;;;;;;13.05;12.35;;;;;;;12.36;100.00;100468.19;5063515;28;20032;-74
2022/09/20 05:57:09;;;;;;;13.40;12.70;;;;;;;12.14;100.00;100477.94;5057800;28;20411;-75
2022/09/20 05:59:37;;;;;;;14.05;13.25;;;;;;;12.70;100.00;100478.16;5036896;28;20033;-76
2022/09/20 06:02:09;;;;;;;12.90;12.20;;;;;;;12.74;100.00;100474.09;5047330;28;20026;-75
2022/09/20 06:05:00;;;;;;;13.20;12.50;;;;;;;12.71;100.00;100474.50;5051435;28;20516;-72
2022/09/20 06:07:35;;;;;;;12.50;11.90;;;;;;;12.73;100.00;100489.25;5057995;28;20048;-72
2022/09/20 06:10:16;;;;;;;13.73;12.93;;;;;;;12.90;100.00;100483.66;5045694;28;20119;-72
2022/09/20 06:13:12;;;;;;;12.73;12.07;;;;;;;13.51;100.00;100468.84;5054655;28;20107;-74
2022/09/20 06:15:58;;;;;;;12.38;11.77;;;;;;;13.25;100.00;100476.63;5052585;28;20056;-76
2022/09/20 06:18:46;;;;;;;13.27;12.57;;;;;;;13.32;100.00;100474.84;5052736;28;20093;-73
2022/09/20 06:21:50;;;;;;;13.00;12.30;;;;;;;13.50;100.00;100471.66;5056741;28;20052;-71
2022/09/20 06:24:48;;;;;;;13.77;12.98;;;;;;;15.19;100.00;100467.31;5056975;28;20044;-72
2022/09/20 06:27:23;;;;;;;12.38;11.77;;;;;;;17.13;100.00;100478.69;5047834;28;20040;-74
2022/09/20 06:29:53;;;;;;;12.32;11.73;;;;;;;16.08;100.00;100468.59;5053207;28;20075;-77
2022/09/20 06:32:19;;;;;;;12.23;11.63;;;;;;;17.00;100.00;100478.78;5054860;28;20373;-76
2022/09/20 06:34:46;;;;;;;13.32;12.63;;;;;;;18.16;100.00;100469.22;5062405;28;20028;-72
2022/09/20 06:43:30;;;;;;;12.63;12.02;;;;;;;20.55;100.00;100480.22;5042193;28;20032;-72
2022/09/20 06:45:57;;;;;;;12.60;12.00;;;;;;;19.56;100.00;100483.00;5038538;28;20380;-71
2022/09/20 06:48:24;;;;;;;12.30;11.70;;;;;;;21.94;96.53;100482.16;5046206;28;20078;-72
2022/09/20 06:50:51;;;;;;;12.70;12.10;;;;;;;20.73;94.51;100479.22;5053900;28;20037;-73
2022/09/20 06:53:29;;;;;;;12.10;11.50;;;;;;;18.41;100.00;100486.00;5051727;28;20094;-73
2022/09/20 06:55:55;;;;;;;12.27;11.68;;;;;;;18.28;100.00;100483.50;5056210;28;20063;-71
2022/09/20 06:58:21;;;;;;;12.57;11.98;;;;;;;18.17;100.00;100484.28;5047938;28;20048;-72
2022/09/20 07:00:47;;;;;;;12.88;12.27;;;;;;;17.50;100.00;100484.16;5052154;28;20025;-72
2022/09/20 07:03:12;;;;;;;13.27;12.57;;;;;;;17.88;100.00;100489.34;5052406;28;20094;-71
2022/09/20 07:05:38;;;;;;;13.32;12.63;;;;;;;18.43;100.00;100488.47;5053823;28;20021;-70
2022/09/20 07:08:04;;;;;;;13.48;12.77;;;;;;;18.21;100.00;100490.81;5059962;28;20021;-72
2022/09/20 07:10:30;;;;;;;13.38;12.68;;;;;;;17.94;100.00;100482.28;5055229;28;20029;-70
2022/09/20 07:12:58;;;;;;;12.88;12.25;;;;;;;17.75;100.00;100480.63;5050306;28;20067;-71
2022/09/20 07:15:24;;;;;;;12.60;12.00;;;;;;;17.94;100.00;100490.31;5041288;28;20070;-71
2022/09/20 07:17:50;;;;;;;12.48;11.88;;;;;;;19.78;100.00;100491.31;5053646;28;20028;-69
2022/09/20 07:20:16;;;;;;;12.40;11.80;;;;;;;18.56;100.00;100493.66;5053420;28;20029;-71
2022/09/20 07:22:41;;;;;;;12.80;12.20;;;;;;;17.20;100.00;100492.06;5051320;28;20104;-71
2022/09/20 07:25:07;;;;;;;12.82;12.23;;;;;;;17.81;100.00;100491.28;5054148;28;20529;-72
2022/09/20 07:27:33;;;;;;;12.82;12.23;;;;;;;17.61;100.00;100494.13;5052998;28;20385;-70
2022/09/20 07:29:58;;;;;;;13.13;12.43;;;;;;;17.67;100.00;100492.44;5055886;28;20029;-72
2022/09/20 07:32:24;;;;;;;13.00;12.40;;;;;;;17.07;100.00;100494.84;5044561;28;20031;-72
2022/09/20 07:34:49;;;;;;;14.05;13.27;;;;;;;16.62;100.00;100500.25;5045090;28;20049;-71
2022/09/20 07:37:18;;;;;;;12.88;12.27;;;;;;;16.64;100.00;100495.50;5041692;28;20032;-71
2022/09/20 07:39:46;;;;;;;12.60;12.00;;;;;;;16.54;100.00;100492.47;5048135;28;20021;-71
2022/09/20 07:42:12;;;;;;;13.10;12.40;;;;;;;15.97;100.00;100494.97;5052632;28;20111;-71
2022/09/20 07:44:41;;;;;;;13.27;12.57;;;;;;;15.74;100.00;100497.31;5046354;28;20021;-72
2022/09/20 07:47:09;;;;;;;13.93;13.20;;;;;;;15.53;100.00;100492.16;5051798;28;20060;-72
2022/09/20 07:49:34;;;;;;;13.00;12.40;;;;;;;16.26;100.00;100485.59;5043379;28;20094;-71
2022/09/20 07:52:00;;;;;;;13.43;12.73;;;;;;;16.89;100.00;100489.38;5047302;28;20029;-72
2022/09/20 07:54:29;;;;;;;13.40;12.70;;;;;;;17.52;100.00;100484.75;5037897;28;20025;-70
2022/09/20 07:56:54;;;;;;;13.38;12.68;;;;;;;18.55;100.00;100494.72;5042170;28;20029;-71
2022/09/20 07:59:20;;;;;;;13.32;12.63;;;;;;;17.85;100.00;100495.19;5038321;28;20461;-71
2022/09/20 08:01:45;;;;;;;13.20;12.50;;;;;;;18.45;100.00;100489.09;5057099;28;20040;-71
2022/09/20 08:04:12;;;;;;;13.65;12.95;;;;;;;18.66;100.00;100491.31;5043547;28;20035;-72
2022/09/20 08:06:40;;;;;;;12.45;11.85;;;;;;;19.54;100.00;100487.00;5046734;28;20029;-71
2022/09/20 08:09:06;;;;;;;13.80;13.10;;;;;;;20.41;93.16;100493.13;5046428;28;20124;-76
2022/09/20 08:11:34;;;;;;;14.40;13.60;;;;;;;19.74;93.91;100497.41;5046359;28;20388;-72
2022/09/20 08:14:01;;;;;;;15.38;14.48;;;;;;;19.60;95.16;100491.44;5054191;28;20045;-77
2022/09/20 08:16:28;;;;;;;13.63;12.93;;;;;;;18.89;100.00;100495.91;5037933;28;20029;-73
2022/09/20 08:18:58;;;;;;;13.35;12.65;;;;;;;18.25;99.47;100483.16;5044042;28;20031;-76
2022/09/20 08:21:26;;;;;;;13.68;12.98;;;;;;;21.03;90.73;100491.59;5037725;28;20048;-71
2022/09/20 08:23:52;;;;;;;12.45;11.85;;;;;;;18.72;99.29;100490.34;5053305;28;20035;-71
2022/09/20 08:26:21;;;;;;;12.70;12.10;;;;;;;19.14;100.00;100492.22;5043629;28;20032;-72
2022/09/20 08:28:54;;;;;;;13.57;12.88;;;;;;;19.99;94.20;100489.88;5049515;28;20044;-77
2022/09/20 08:31:22;;;;;;;13.27;12.63;;;;;;;19.74;94.72;100490.16;5035179;28;20091;-73
2022/09/20 08:33:51;;;;;;;12.93;12.32;;;;;;;19.00;96.22;100488.91;5049791;28;20021;-72
2022/09/20 08:36:20;;;;;;;12.75;12.15;;;;;;;17.81;100.00;100487.78;5051045;28;20031;-71
2022/09/20 08:38:45;;;;;;;14.48;13.68;;;;;;;18.89;99.36;100489.72;5044550;28;20584;-72
2022/09/20 08:41:17;;;;;;;13.38;12.68;;;;;;;18.07;100.00;100486.69;5044383;28;20120;-72
2022/09/20 08:43:50;;;;;;;14.18;13.43;;;;;;;19.12;98.74;100484.38;5037289;28;20199;-72
2022/09/20 08:46:20;;;;;;;12.90;12.30;;;;;;;19.39;95.99;100489.31;5042565;28;20083;-72
2022/09/20 08:48:46;;;;;;;13.18;12.48;;;;;;;19.82;91.28;100473.63;5052745;28;20106;-73
2022/09/20 08:51:17;;;;;;;13.10;12.40;;;;;;;18.11;100.00;100469.06;5052127;28;20025;-74
2022/09/20 08:53:51;;;;;;;13.55;12.85;;;;;;;19.73;90.84;100475.06;5044002;28;20579;-72
2022/09/20 08:56:17;;;;;;;17.07;16.00;;;;;;;19.70;90.15;100472.03;5042857;28;20036;-75
2022/09/20 08:58:44;;;;;;;14.30;13.50;;;;;;;20.10;87.51;100464.78;5042957;28;20358;-73
2022/09/20 09:01:31;;;;;;;16.00;15.00;;;;;;;21.33;84.36;100467.81;5036449;28;20035;-74
2022/09/20 09:04:22;;;;;;;13.57;12.88;;;;;;;20.38;84.05;100463.19;5048803;28;20493;-73
2022/09/20 09:06:50;;;;;;;12.82;12.23;;;;;;;20.77;87.03;100458.78;5047622;28;20032;-74
2022/09/20 09:09:23;;;;;;;13.25;12.55;;;;;;;19.78;89.89;100460.91;5036645;28;20167;-73
2022/09/20 09:11:50;;;;;;;16.20;15.20;;;;;;;21.23;80.71;100471.16;5039282;28;20040;-72
2022/09/20 09:17:13;;;;;;;13.60;12.90;;;;;;;20.33;84.05;100465.75;5041792;28;20040;-71
2022/09/20 09:19:46;;;;;;;13.57;12.88;;;;;;;19.42;88.29;100465.47;5050877;28;20063;-72
2022/09/20 09:22:22;;;;;;;13.40;12.70;;;;;;;20.34;84.76;100459.31;5047963;28;20052;-72
2022/09/20 09:25:20;;;;;;;13.73;13.02;;;;;;;20.04;89.40;100462.22;5038187;28;20037;-72
2022/09/20 09:27:52;;;;;;;15.48;14.57;;;;;;;18.96;92.72;100472.44;5044364;28;20491;-72
2022/09/20 09:30:20;;;;;;;14.05;13.27;;;;;;;18.38;96.24;100462.31;5042666;28;20021;-72
2022/09/20 09:32:46;;;;;;;14.57;13.77;;;;;;;18.53;93.53;100475.34;5046201;28;20132;-72
2022/09/20 09:35:30;;;;;;;16.08;15.07;;;;;;;19.50;90.52;100470.47;5041618;28;20086;-73
2022/09/20 09:38:01;;;;;;;13.70;12.98;;;;;;;20.00;83.47;100463.78;5044426;28;20118;-73
2022/09/20 09:40:30;;;;;;;13.65;12.95;;;;;;;19.68;83.10;100455.28;5045693;28;20075;-70
2022/09/20 09:43:01;;;;;;;15.23;14.32;;;;;;;19.08;88.58;100471.63;5049102;28;20044;-73
2022/09/20 09:45:27;;;;;;;13.52;12.82;;;;;;;18.38;91.31;100467.69;5037798;28;20034;-71
2022/09/20 09:47:54;;;;;;;13.45;12.75;;;;;;;18.21;86.94;100462.13;5032285;28;20505;-72
2022/09/20 09:50:26;;;;;;;14.20;13.40;;;;;;;18.97;84.07;100466.00;5049681;28;20040;-74
2022/09/20 09:53:32;;;;;;;12.32;11.73;;;;;;;18.19;87.65;100474.13;5047766;28;20055;-71
2022/09/20 09:56:06;;;;;;;13.15;12.45;;;;;;;18.89;86.10;100463.66;5006700;28;20038;-72
2022/09/20 09:58:50;;;;;;;;;;;;;;;18.68;86.02;100462.31;5004923;28;20052;-78
2022/09/20 10:01:44;;;;;;;12.88;12.20;;;;;;;18.55;84.11;100458.97;5031972;28;19916;-76
2022/09/20 10:04:15;;;;;;;13.60;12.90;;;;;;;18.69;83.31;100460.44;5051132;28;20517;-75
2022/09/20 10:06:49;;;;;;;13.43;12.73;;;;;;;18.06;79.61;100461.66;5051559;28;20027;-75
2022/09/20 10:09:29;;;;;;;17.10;16.00;;;;;;;17.79;83.06;100465.72;5047337;28;20017;-76
2022/09/20 10:12:06;;;;;;;13.60;12.82;;;;;;;17.75;83.92;100457.28;5063112;28;20031;-73
2022/09/20 10:14:50;;;;;;;13.27;12.57;;;;;;;17.60;80.12;100448.75;5052403;28;20059;-74
2022/09/20 10:17:27;;;;;;;12.70;12.10;;;;;;;17.97;80.79;100454.97;5049634;28;20025;-76
2022/09/20 10:20:08;;;;;;;14.75;13.93;;;;;;;17.48;79.57;100447.84;5041363;28;20032;-75
2022/09/20 10:22:59;;;;;;;13.82;13.13;;;;;;;17.60;81.52;100454.94;5044312;28;20036;-74
2022/09/20 10:25:46;;;;;;;12.50;11.90;;;;;;;17.34;83.18;100455.22;5047429;28;20348;-75
2022/09/20 10:28:47;;;;;;;12.95;12.27;;;;;;;17.47;82.37;100448.88;5050493;28;20029;-75
2022/09/20 10:31:40;;;;;;;13.15;12.45;;;;;;;17.58;81.10;100456.22;5045610;28;20021;-74
2022/09/20 10:34:42;;;;;;;13.20;12.50;;;;;;;17.81;80.45;100442.97;5049660;28;20029;-73
2022/09/20 10:37:16;;;;;;;13.50;12.80;;;;;;;17.88;76.75;100445.59;5044376;28;20744;-72
2022/09/20 10:39:47;;;;;;;12.55;11.95;;;;;;;17.76;77.23;100431.28;5052062;28;20028;-74
2022/09/20 10:45:20;;;;;;;14.13;13.32;;;;;;;18.06;77.97;100442.88;5050586;28;20074;-74
2022/09/20 10:47:51;;;;;;;13.20;12.50;;;;;;;18.15;74.58;100451.47;5041419;28;20053;-72
2022/09/20 10:50:28;;;;;;;12.73;12.13;;;;;;;17.72;77.72;100452.38;5054214;28;20029;-74
2022/09/20 10:53:02;;;;;;;13.25;12.55;;;;;;;17.97;79.37;100449.59;5049632;28;20535;-72
2022/09/20 10:55:39;;;;;;;13.32;12.63;;;;;;;18.21;82.85;100458.59;5050394;28;20039;-73
2022/09/20 10:58:42;;;;;;;12.98;12.27;;;;;;;17.99;78.88;100444.81;5040651;28;20087;-73
2022/09/20 11:01:46;;;;;;;12.65;12.02;;;;;;;17.86;77.26;100445.00;5045203;28;20040;-72
2022/09/20 11:04:15;;;;;;;13.05;12.35;;;;;;;17.74;79.47;100439.56;5046489;28;20025;-71
2022/09/20 11:06:49;;;;;;;13.15;12.45;;;;;;;17.98;78.82;100445.88;5053883;28;20048;-72
2022/09/20 11:09:20;;;;;;;12.40;11.80;;;;;;;17.75;78.57;100435.81;5039320;28;20025;-74
2022/09/20 11:11:53;;;;;;;12.90;12.20;;;;;;;17.88;78.42;100437.53;5040426;28;20094;-72
2022/09/20 11:14:49;;;;;;;12.73;12.13;;;;;;;18.34;79.76;100449.56;5056446;28;20021;-71
2022/09/20 11:17:59;;;;;;;13.05;12.35;;;;;;;18.85;76.67;100437.47;5037794;28;20115;-71
2022/09/20 11:20:29;;;;;;;12.00;11.40;;;;;;;17.59;65.51;100433.72;5050647;28;20027;-74
2022/09/20 11:23:10;;;;;;;12.63;12.02;;;;;;;17.78;75.86;100440.75;5054254;28;20029;-72
2022/09/20 11:25:43;;;;;;;12.30;11.70;;;;;;;17.94;67.44;100434.78;5043534;28;20037;-74
2022/09/20 11:28:12;;;;;;;13.02;12.32;;;;;;;18.20;65.92;100435.47;5039753;28;20017;-75
2022/09/20 11:30:53;;;;;;;12.98;12.27;;;;;;;18.10;70.96;100454.00;5040585;28;20182;-74
2022/09/20 11:33:26;;;;;;;13.20;12.50;;;;;;;17.78;74.78;100437.25;5043782;28;20338;-76
2022/09/20 11:35:56;;;;;;;12.75;12.13;;;;;;;17.73;78.69;100445.16;5050364;28;20420;-75
2022/09/20 11:38:31;;;;;;;15.20;14.30;;;;;;;17.12;74.56;100446.75;5047449;28;20032;-71
2022/09/20 11:41:18;;;;;;;13.23;12.52;;;;;;;17.17;72.94;100456.81;5043998;28;20034;-71
2022/09/20 11:43:45;;;;;;;15.18;14.27;;;;;;;17.31;73.61;100445.75;5057602;28;20029;-72
2022/09/20 11:46:18;;;;;;;12.95;12.25;;;;;;;17.48;74.99;100450.53;5045099;28;20033;-72
2022/09/20 11:49:00;;;;;;;12.15;11.55;;;;;;;17.07;78.11;100447.41;5052555;28;20037;-74
2022/09/20 11:51:56;;;;;;;13.77;13.00;;;;;;;17.21;78.13;100447.31;5039796;28;20033;-75
2022/09/20 11:54:27;;;;;;;13.75;12.98;;;;;;;17.44;79.94;100442.13;5047961;28;20083;-74
2022/09/20 11:56:55;;;;;;;13.00;12.30;;;;;;;17.26;79.97;100448.28;5051501;28;20029;-76
2022/09/20 11:59:39;;;;;;;13.32;12.63;;;;;;;17.29;80.43;100447.84;5047085;28;20813;-74
2022/09/20 12:02:22;;;;;;;13.77;13.00;;;;;;;17.47;80.70;100448.88;5043022;28;20116;-74
2022/09/20 12:04:52;;;;;;;13.40;12.70;;;;;;;17.72;81.37;100447.03;5043653;28;20772;-73
2022/09/20 12:07:41;;;;;;;13.20;12.50;;;;;;;17.53;80.74;100448.00;5045577;28;20056;-74